EGPH/EDI METAR and TAF weather

Enter ICAO airport designator
Station Type Date Time Source
EGPH METAR 2022/08/16 19:20 UTC NOAA

EGPH 161920Z 08013KT 9999 FEW014 BKN023 14/11 Q1014


Station Type Date Time Source
EGPH Decoded METAR 2022/08/16 19:20 UTC NOAA

Edinburgh Airport, United Kingdom (EGPH) 55-57N 003-21W 0M
Aug 16, 2022 - 03:20 PM EDT / 2022.08.16 1920 UTC
Wind: from the E (080 degrees) at 15 MPH (13 KT):0
Visibility: greater than 7 mile(s):0
Sky conditions: mostly cloudy
Temperature: 57 F (14 C)
Dew Point: 51 F (11 C)
Relative Humidity: 82%
Pressure (altimeter): 29.94 in. Hg (1014 hPa)
ob: EGPH 161920Z 08013KT 9999 FEW014 BKN023 14/11 Q1014
cycle: 19

Station Type Date Time Source
EGPH TAF 2022/08/16 18:09 UTC NOAA

TAF EGPH 161659Z 1618/1718 09008KT 9999 SCT016 BKN025 PROB30
TEMPO 1618/1623 7000 -RA BKN010

Example: see airport list